Time;durP1;ratioP1;P1;durP2;ratioP2;P2;SDS_P1;SDS_P2;PMS_P1;PMS_P2;Temp;Humidity;BMP_temperature;BMP_pressure;BME280_temperature;BME280_humidity;BME280_pressure;Samples;Min_cycle;Max_cycle;Signal;HPM_P1;HPM_P2
2022/08/22 00:03:01;;;;;;;25.10;12.73;;;;;;;;;;6165460;28;20015;-86
2022/08/22 00:06:01;;;;;;;36.80;14.07;;;;;;;;;;6150567;28;20019;-86
2022/08/22 00:09:17;;;;;;;30.98;14.32;;;;;;;;;;6144739;28;20110;-86
2022/08/22 00:12:21;;;;;;;33.38;15.88;;;;;;;;;;6163132;28;20027;-86
2022/08/22 00:15:25;;;;;;;27.50;14.63;;;;;;;;;;6165459;28;20380;-86
2022/08/22 00:18:31;;;;;;;37.28;16.52;;;;;;;;;;6158950;28;20109;-86
2022/08/22 00:21:35;;;;;;;30.92;14.73;;;;;;;;;;6164656;28;20026;-86
2022/08/22 00:24:54;;;;;;;43.60;19.05;;;;;;;;;;6166383;28;20027;-86
2022/08/22 00:28:03;;;;;;;46.28;24.13;;;;;;;;;;6164711;28;20019;-86
2022/08/22 00:31:16;;;;;;;47.72;20.67;;;;;;;;;;6150739;28;20072;-86
2022/08/22 00:34:16;;;;;;;43.72;21.38;;;;;;;;;;6157987;28;20034;-86
2022/08/22 00:37:26;;;;;;;55.13;27.93;;;;;;;;;;6143072;28;20114;-86
2022/08/22 00:40:45;;;;;;;48.80;24.00;;;;;;;;;;6142798;28;20507;-86
2022/08/22 00:43:48;;;;;;;49.03;22.88;;;;;;;;;;6165539;28;20037;-87
2022/08/22 00:46:59;;;;;;;51.17;23.02;;;;;;;;;;6166509;28;20061;-86
2022/08/22 00:50:02;;;;;;;46.83;23.00;;;;;;;;;;6168227;28;20019;-86
2022/08/22 00:53:15;;;;;;;43.75;23.23;;;;;;;;;;6142386;28;20039;-86
2022/08/22 00:56:29;;;;;;;47.20;22.15;;;;;;;;;;6167416;28;20093;-86
2022/08/22 00:59:34;;;;;;;48.90;23.88;;;;;;;;;;6145579;28;20057;-86
2022/08/22 01:02:35;;;;;;;40.92;19.90;;;;;;;;;;6166457;28;20050;-86
2022/08/22 01:05:35;;;;;;;46.63;21.88;;;;;;;;;;6164139;28;20073;-86
2022/08/22 01:09:01;;;;;;;43.35;20.75;;;;;;;;;;6159516;28;20058;-86
2022/08/22 01:12:15;;;;;;;35.03;19.30;;;;;;;;;;6159812;28;20035;-87
2022/08/22 01:15:21;;;;;;;40.22;20.20;;;;;;;;;;6146672;28;20482;-86
2022/08/22 01:18:24;;;;;;;45.58;21.25;;;;;;;;;;6162663;28;20166;-87
2022/08/22 01:21:30;;;;;;;56.00;27.33;;;;;;;;;;6145977;28;20058;-87
2022/08/22 01:28:11;;;;;;;60.38;28.23;;;;;;;;;;6164419;28;20038;-87
2022/08/22 01:31:18;;;;;;;68.28;32.83;;;;;;;;;;6149516;28;20018;-87
2022/08/22 01:34:37;;;;;;;74.32;32.78;;;;;;;;;;6146382;28;20019;-86
2022/08/22 01:37:56;;;;;;;49.38;23.90;;;;;;;;;;6149319;28;20379;-87
2022/08/22 01:41:16;;;;;;;51.70;23.45;;;;;;;;;;6166112;28;20058;-87
2022/08/22 01:44:28;;;;;;;43.92;22.17;;;;;;;;;;6145422;28;20057;-87
2022/08/22 01:47:33;;;;;;;39.88;20.65;;;;;;;;;;6165554;28;20022;-86
2022/08/22 01:50:40;;;;;;;44.45;25.38;;;;;;;;;;6148890;28;20019;-86
2022/08/22 01:53:50;;;;;;;52.63;24.05;;;;;;;;;;6148218;28;20101;-86
2022/08/22 01:56:57;;;;;;;57.67;24.90;;;;;;;;;;6161533;28;20128;-87
2022/08/22 01:59:59;;;;;;;58.92;25.52;;;;;;;;;;6142884;28;20482;-87
2022/08/22 02:03:03;;;;;;;54.65;22.65;;;;;;;;;;6148615;28;20021;-87
2022/08/22 02:06:06;;;;;;;58.45;21.30;;;;;;;;;;6144072;28;20110;-87
2022/08/22 02:09:32;;;;;;;61.67;25.65;;;;;;;;;;6148273;28;20030;-87
2022/08/22 02:12:42;;;;;;;51.95;23.30;;;;;;;;;;6154998;28;20039;-87
2022/08/22 02:15:46;;;;;;;46.30;24.25;;;;;;;;;;6159980;28;20030;-87
2022/08/22 02:18:52;;;;;;;48.80;22.75;;;;;;;;;;6159235;28;20094;-87
2022/08/22 02:21:54;;;;;;;50.65;21.20;;;;;;;;;;6142619;28;20074;-87
2022/08/22 02:24:57;;;;;;;44.05;20.90;;;;;;;;;;6163736;28;20018;-87
2022/08/22 02:28:01;;;;;;;45.88;22.33;;;;;;;;;;6148242;28;20130;-87
2022/08/22 02:31:07;;;;;;;53.05;24.55;;;;;;;;;;6165289;28;20027;-87
2022/08/22 02:34:32;;;;;;;60.58;34.20;;;;;;;;;;6166060;28;20426;-87
2022/08/22 02:37:34;;;;;;;53.33;22.75;;;;;;;;;;6165212;28;20023;-87
2022/08/22 02:40:42;;;;;;;50.28;22.17;;;;;;;;;;6147562;28;20029;-87
2022/08/22 02:43:46;;;;;;;53.63;23.42;;;;;;;;;;6165492;28;20026;-87
2022/08/22 02:46:50;;;;;;;52.08;24.88;;;;;;;;;;6148275;28;20033;-87
2022/08/22 02:50:07;;;;;;;53.58;22.10;;;;;;;;;;6164546;28;20058;-87
2022/08/22 02:53:16;;;;;;;43.17;19.48;;;;;;;;;;6165051;28;20296;-87
2022/08/22 02:56:25;;;;;;;53.65;22.85;;;;;;;;;;6159233;28;20782;-87
2022/08/22 02:59:26;;;;;;;53.78;23.70;;;;;;;;;;6148084;28;20030;-87
2022/08/22 03:02:36;;;;;;;64.03;27.70;;;;;;;;;;6147568;28;20015;-87
2022/08/22 03:05:37;;;;;;;51.10;25.80;;;;;;;;;;6141759;28;20023;-86
2022/08/22 03:08:38;;;;;;;63.28;31.10;;;;;;;;;;6147362;28;20030;-86
2022/08/22 03:11:41;;;;;;;62.65;30.02;;;;;;;;;;6164958;28;20371;-86
2022/08/22 03:14:45;;;;;;;72.22;34.05;;;;;;;;;;6158537;28;20556;-86
2022/08/22 03:17:51;;;;;;;80.65;40.35;;;;;;;;;;6161675;28;20035;-86
2022/08/22 03:20:57;;;;;;;86.65;42.40;;;;;;;;;;6139757;28;20035;-86
2022/08/22 03:24:07;;;;;;;95.65;45.80;;;;;;;;;;6140145;28;20029;-87
2022/08/22 03:27:16;;;;;;;99.57;56.47;;;;;;;;;;6137167;28;20034;-87
2022/08/22 03:30:16;;;;;;;86.50;44.72;;;;;;;;;;6142135;28;20051;-87
2022/08/22 03:33:28;;;;;;;82.20;43.87;;;;;;;;;;6144845;28;20022;-86
2022/08/22 03:36:30;;;;;;;79.82;45.53;;;;;;;;;;6141777;28;20027;-87
2022/08/22 03:39:53;;;;;;;85.22;50.03;;;;;;;;;;6144751;28;20157;-87
2022/08/22 03:43:02;;;;;;;92.00;52.78;;;;;;;;;;6107733;28;20023;-87
2022/08/22 03:46:03;;;;;;;107.15;58.08;;;;;;;;;;6143892;28;20799;-87
2022/08/22 03:49:18;;;;;;;96.27;53.90;;;;;;;;;;6143849;28;20026;-87
2022/08/22 03:53:06;;;;;;;97.20;52.63;;;;;;;;;;6144617;28;20159;-87
2022/08/22 03:56:16;;;;;;;98.43;54.47;;;;;;;;;;6140373;28;20031;-88
2022/08/22 03:59:35;;;;;;;102.60;53.08;;;;;;;;;;6154729;28;20024;-87
2022/08/22 04:02:44;;;;;;;88.85;51.38;;;;;;;;;;6134321;28;20114;-88
2022/08/22 04:05:44;;;;;;;94.40;50.83;;;;;;;;;;6128660;28;20023;-87
2022/08/22 04:09:05;;;;;;;99.03;50.65;;;;;;;;;;6137552;28;20511;-87
2022/08/22 04:12:21;;;;;;;100.13;52.78;;;;;;;;;;6144239;28;20027;-87
2022/08/22 04:15:24;;;;;;;95.40;50.33;;;;;;;;;;6140486;28;20118;-88
2022/08/22 04:18:43;;;;;;;106.85;55.42;;;;;;;;;;6147727;28;20045;-87
2022/08/22 04:21:56;;;;;;;104.03;53.88;;;;;;;;;;6167822;28;20041;-88
2022/08/22 04:25:05;;;;;;;107.30;56.53;;;;;;;;;;6144211;28;20019;-88
2022/08/22 04:28:18;;;;;;;108.15;54.10;;;;;;;;;;6156647;28;20106;-88
2022/08/22 04:31:26;;;;;;;98.32;50.40;;;;;;;;;;6151980;28;20734;-87
2022/08/22 04:34:30;;;;;;;99.50;52.30;;;;;;;;;;6147116;28;20019;-88
2022/08/22 04:37:55;;;;;;;99.95;51.38;;;;;;;;;;6141460;28;20549;-88
2022/08/22 04:41:12;;;;;;;101.93;52.72;;;;;;;;;;6151375;28;20449;-88
2022/08/22 04:44:15;;;;;;;94.07;50.08;;;;;;;;;;6150370;28;20010;-88
2022/08/22 04:47:25;;;;;;;88.35;49.75;;;;;;;;;;6148579;28;20115;-88
2022/08/22 04:50:28;;;;;;;95.90;50.65;;;;;;;;;;6165824;28;20707;-88
2022/08/22 04:53:49;;;;;;;89.85;53.03;;;;;;;;;;6144746;28;20060;-88
2022/08/22 04:57:08;;;;;;;93.60;51.53;;;;;;;;;;6149832;28;20105;-88
2022/08/22 05:00:09;;;;;;;90.10;50.25;;;;;;;;;;6150654;28;20039;-88
2022/08/22 05:03:14;;;;;;;82.60;47.35;;;;;;;;;;6145760;28;20122;-87
2022/08/22 05:06:15;;;;;;;80.50;47.25;;;;;;;;;;6151319;28;20011;-88
2022/08/22 05:09:17;;;;;;;88.38;49.70;;;;;;;;;;6151520;28;20023;-88
2022/08/22 05:12:20;;;;;;;82.15;49.17;;;;;;;;;;6152037;28;20027;-88
2022/08/22 05:15:31;;;;;;;88.65;50.38;;;;;;;;;;6151694;28;20264;-88
2022/08/22 05:18:33;;;;;;;86.13;46.77;;;;;;;;;;6152397;28;20039;-88
2022/08/22 05:21:36;;;;;;;87.47;47.70;;;;;;;;;;6169225;28;20676;-88
2022/08/22 05:24:38;;;;;;;91.80;48.42;;;;;;;;;;6151154;28;20014;-88
2022/08/22 05:27:40;;;;;;;91.13;48.38;;;;;;;;;;6152477;28;20019;-88
2022/08/22 05:30:42;;;;;;;90.43;49.45;;;;;;;;;;6149544;28;20089;-88
2022/08/22 05:33:44;;;;;;;91.50;46.47;;;;;;;;;;6146248;28;20015;-88
2022/08/22 05:36:48;;;;;;;84.18;44.45;;;;;;;;;;6167752;28;20018;-88
2022/08/22 05:39:52;;;;;;;85.22;44.30;;;;;;;;;;6151366;28;20025;-88
2022/08/22 05:42:54;;;;;;;86.70;46.67;;;;;;;;;;6143634;28;20011;-87
2022/08/22 05:45:56;;;;;;;91.32;44.03;;;;;;;;;;6148138;28;20153;-88
2022/08/22 05:48:58;;;;;;;82.55;42.78;;;;;;;;;;6159066;28;20015;-88
2022/08/22 05:52:02;;;;;;;101.82;47.75;;;;;;;;;;6165211;28;20031;-88
2022/08/22 05:55:05;;;;;;;86.90;43.83;;;;;;;;;;6169896;28;20023;-87
2022/08/22 05:58:09;;;;;;;83.15;44.45;;;;;;;;;;6162240;28;20529;-87
2022/08/22 06:01:12;;;;;;;80.40;41.78;;;;;;;;;;6153400;28;20015;-87
2022/08/22 06:04:31;;;;;;;87.18;45.35;;;;;;;;;;6147842;28;20053;-87
2022/08/22 06:07:43;;;;;;;80.65;42.53;;;;;;;;;;6147144;28;20395;-87
2022/08/22 06:10:45;;;;;;;84.13;45.83;;;;;;;;;;6147950;28;20033;-88
2022/08/22 06:13:52;;;;;;;83.80;44.38;;;;;;;;;;6145853;28;20019;-88
2022/08/22 06:17:09;;;;;;;79.80;42.35;;;;;;;;;;6135600;28;20541;-88
2022/08/22 06:20:12;;;;;;;82.40;42.75;;;;;;;;;;6157284;28;20758;-88
2022/08/22 06:23:14;;;;;;;87.13;46.53;;;;;;;;;;6164929;28;20458;-87
2022/08/22 06:26:16;;;;;;;86.93;46.30;;;;;;;;;;6159495;28;20023;-88
2022/08/22 06:29:40;;;;;;;94.50;45.58;;;;;;;;;;6150483;28;20065;-88
2022/08/22 06:32:44;;;;;;;97.95;46.92;;;;;;;;;;6153317;28;20062;-88
2022/08/22 06:39:17;;;;;;;96.78;47.83;;;;;;;;;;6164917;28;20027;-87
2022/08/22 06:42:21;;;;;;;93.43;47.00;;;;;;;;;;6163712;28;20014;-87
2022/08/22 06:45:28;;;;;;;99.63;46.17;;;;;;;;;;6165250;28;20038;-87
2022/08/22 06:48:28;;;;;;;99.78;47.08;;;;;;;;;;6163996;28;20209;-87
2022/08/22 06:51:29;;;;;;;91.93;45.47;;;;;;;;;;6148989;28;20023;-88
2022/08/22 06:54:31;;;;;;;102.97;47.73;;;;;;;;;;6142386;28;20039;-88
2022/08/22 06:57:41;;;;;;;92.88;46.47;;;;;;;;;;6144206;28;20023;-88
2022/08/22 07:00:42;;;;;;;96.43;44.15;;;;;;;;;;6159012;28;20374;-88
2022/08/22 07:03:43;;;;;;;90.47;44.58;;;;;;;;;;6134809;28;20019;-88
2022/08/22 07:06:43;;;;;;;;;;;;;;;;;;6154318;28;20027;-88
2022/08/22 07:09:47;;;;;;;103.45;46.75;;;;;;;;;;6156605;28;19918;-87
2022/08/22 07:12:49;;;;;;;98.32;45.13;;;;;;;;;;6157711;28;20803;-88
2022/08/22 07:15:52;;;;;;;88.47;44.35;;;;;;;;;;6134310;28;20035;-88
2022/08/22 07:18:53;;;;;;;93.93;46.08;;;;;;;;;;6161353;28;20047;-87
2022/08/22 07:21:53;;;;;;;101.33;47.90;;;;;;;;;;6140732;28;20033;-88
2022/08/22 07:25:00;;;;;;;88.07;46.20;;;;;;;;;;6144161;28;20019;-87
2022/08/22 07:28:19;;;;;;;86.53;43.17;;;;;;;;;;6143289;28;20015;-88
2022/08/22 07:31:39;;;;;;;83.40;41.97;;;;;;;;;;6162533;28;20034;-88
2022/08/22 07:34:39;;;;;;;83.57;44.63;;;;;;;;;;6155827;28;20601;-88
2022/08/22 07:37:45;;;;;;;84.03;43.53;;;;;;;;;;6140306;28;20023;-88
2022/08/22 07:41:05;;;;;;;77.45;43.15;;;;;;;;;;6137135;28;20031;-88
2022/08/22 07:44:16;;;;;;;79.22;39.80;;;;;;;;;;6139046;28;20027;-87
2022/08/22 07:47:18;;;;;;;79.35;43.50;;;;;;;;;;6161850;28;20074;-87
2022/08/22 07:50:21;;;;;;;82.50;44.85;;;;;;;;;;6138862;28;20054;-87
2022/08/22 07:53:25;;;;;;;81.95;41.30;;;;;;;;;;6166194;28;20268;-87
2022/08/22 07:56:27;;;;;;;69.22;39.00;;;;;;;;;;6136157;28;20027;-87
2022/08/22 07:59:29;;;;;;;71.85;39.95;;;;;;;;;;6142533;28;20031;-87
2022/08/22 08:02:29;;;;;;;;;;;;;;;;;;6165619;28;20023;-88
2022/08/22 08:05:31;;;;;;;72.37;37.17;;;;;;;;;;6168091;28;19913;-87
2022/08/22 08:08:31;;;;;;;;;;;;;;;;;;6166782;28;20062;-88
2022/08/22 08:11:33;;;;;;;70.85;37.65;;;;;;;;;;6154425;28;19918;-87
2022/08/22 08:14:36;;;;;;;75.75;38.28;;;;;;;;;;6168940;28;20027;-87
2022/08/22 08:17:37;;;;;;;68.18;39.35;;;;;;;;;;6172073;28;20034;-87
2022/08/22 08:20:38;;;;;;;73.43;38.97;;;;;;;;;;6145997;28;20134;-87
2022/08/22 08:23:44;;;;;;;74.40;40.37;;;;;;;;;;6147535;28;20027;-88
2022/08/22 08:30:10;;;;;;;59.70;33.97;;;;;;;;;;6145287;28;20039;-87
2022/08/22 08:33:13;;;;;;;58.70;32.55;;;;;;;;;;6148876;28;20031;-87
2022/08/22 08:36:13;;;;;;;44.70;29.33;;;;;;;;;;6149893;28;20028;-88
2022/08/22 08:39:25;;;;;;;42.88;26.90;;;;;;;;;;6148142;28;20031;-88
2022/08/22 08:43:26;;;;;;;34.50;23.52;;;;;;;;;;6145027;28;20591;-88
2022/08/22 08:46:17;;;;;;;34.88;25.00;;;;;;;;;;6148711;28;20066;-88
2022/08/22 08:49:17;;;;;;;32.97;23.70;;;;;;;;;;6146650;28;20105;-88
2022/08/22 08:52:26;;;;;;;42.13;24.67;;;;;;;;;;6145428;28;20035;-88
2022/08/22 08:55:42;;;;;;;38.97;25.65;;;;;;;;;;6143363;28;20041;-88
2022/08/22 08:58:52;;;;;;;39.05;24.52;;;;;;;;;;6138528;28;20475;-88
2022/08/22 09:02:01;;;;;;;42.38;24.05;;;;;;;;;;6137218;28;20027;-88
2022/08/22 09:05:14;;;;;;;31.48;20.90;;;;;;;;;;6141543;28;20023;-88
2022/08/22 09:08:32;;;;;;;29.17;20.77;;;;;;;;;;6144801;28;20023;-89
2022/08/22 09:11:51;;;;;;;25.30;18.42;;;;;;;;;;6141777;28;20038;-89
2022/08/22 09:15:07;;;;;;;25.85;19.17;;;;;;;;;;6130830;28;20069;-89
2022/08/22 09:18:27;;;;;;;24.70;19.33;;;;;;;;;;6135612;28;20059;-88
2022/08/22 09:21:43;;;;;;;23.38;16.50;;;;;;;;;;6149067;28;20019;-88
2022/08/22 09:25:01;;;;;;;22.23;16.88;;;;;;;;;;6166931;28;20025;-89
2022/08/22 09:28:16;;;;;;;24.63;16.60;;;;;;;;;;6160126;28;20129;-88
2022/08/22 09:31:28;;;;;;;23.67;17.15;;;;;;;;;;6156500;28;20275;-89
2022/08/22 09:34:34;;;;;;;19.50;15.18;;;;;;;;;;6148911;28;20093;-89
2022/08/22 09:37:47;;;;;;;25.27;14.20;;;;;;;;;;6154571;28;20034;-89
2022/08/22 09:40:50;;;;;;;22.98;15.30;;;;;;;;;;6153169;28;20027;-89
2022/08/22 09:44:01;;;;;;;30.80;18.83;;;;;;;;;;6159429;28;20030;-89
2022/08/22 09:47:01;;;;;;;;;;;;;;;;;;6139577;28;20019;-89
2022/08/22 09:50:02;;;;;;;24.73;18.40;;;;;;;;;;6143797;28;19945;-89
2022/08/22 09:53:26;;;;;;;23.20;17.88;;;;;;;;;;6142872;28;20708;-89
2022/08/22 09:56:45;;;;;;;22.63;18.50;;;;;;;;;;6155606;28;20031;-89
2022/08/22 09:59:46;;;;;;;25.58;19.40;;;;;;;;;;6159555;28;20037;-88
2022/08/22 10:03:06;;;;;;;24.20;17.70;;;;;;;;;;6144627;28;20023;-89
2022/08/22 10:06:12;;;;;;;21.35;18.20;;;;;;;;;;6105526;28;20042;-89
2022/08/22 10:09:20;;;;;;;23.67;18.88;;;;;;;;;;6142082;28;20435;-89
2022/08/22 10:12:26;;;;;;;26.90;19.25;;;;;;;;;;6154302;28;20023;-89
2022/08/22 10:15:32;;;;;;;23.17;18.25;;;;;;;;;;6141624;28;20027;-89
2022/08/22 10:18:36;;;;;;;32.53;21.42;;;;;;;;;;6144222;28;20590;-89
2022/08/22 10:21:41;;;;;;;25.63;20.15;;;;;;;;;;6145759;28;20081;-89
2022/08/22 10:24:47;;;;;;;31.10;20.70;;;;;;;;;;6165583;28;20021;-89
2022/08/22 10:27:53;;;;;;;30.35;19.73;;;;;;;;;;6160206;28;20026;-89
2022/08/22 10:31:20;;;;;;;27.63;20.15;;;;;;;;;;6149292;28;20010;-89
2022/08/22 10:34:23;;;;;;;27.02;19.85;;;;;;;;;;6161098;28;20019;-89
2022/08/22 10:37:37;;;;;;;29.05;20.08;;;;;;;;;;6166061;28;20105;-89
2022/08/22 10:40:48;;;;;;;30.15;19.95;;;;;;;;;;6165499;28;20011;-89
2022/08/22 10:43:51;;;;;;;27.37;20.10;;;;;;;;;;6148201;28;20042;-89
2022/08/22 10:47:00;;;;;;;26.02;21.27;;;;;;;;;;6148853;28;20019;-89
2022/08/22 10:50:04;;;;;;;27.25;19.50;;;;;;;;;;6165954;28;20088;-89
2022/08/22 10:53:32;;;;;;;25.13;19.20;;;;;;;;;;6150050;28;20439;-89
2022/08/22 10:56:40;;;;;;;25.05;20.33;;;;;;;;;;6142357;28;20022;-89
2022/08/22 10:59:44;;;;;;;29.15;21.05;;;;;;;;;;6142078;28;20019;-89
2022/08/22 11:02:48;;;;;;;24.55;18.35;;;;;;;;;;6153418;28;20023;-89
2022/08/22 11:05:49;;;;;;;26.73;21.58;;;;;;;;;;6142241;28;20671;-89
2022/08/22 11:08:49;;;;;;;;;;;;;;;;;;6139924;28;20025;-89
2022/08/22 11:11:59;;;;;;;27.05;20.13;;;;;;;;;;6160799;28;19915;-89
2022/08/22 11:15:17;;;;;;;24.23;18.98;;;;;;;;;;6156239;28;20359;-89
2022/08/22 11:18:32;;;;;;;24.38;18.75;;;;;;;;;;6143124;28;20442;-89
2022/08/22 11:21:51;;;;;;;27.20;18.90;;;;;;;;;;6153491;28;20023;-89
2022/08/22 11:25:10;;;;;;;28.85;20.58;;;;;;;;;;6146898;28;20106;-89
2022/08/22 11:28:13;;;;;;;28.38;21.20;;;;;;;;;;6165147;28;20118;-89
2022/08/22 11:31:31;;;;;;;30.58;20.48;;;;;;;;;;6166269;28;20541;-89
2022/08/22 11:34:31;;;;;;;29.52;18.83;;;;;;;;;;6143828;28;20585;-89
2022/08/22 11:37:35;;;;;;;25.15;19.13;;;;;;;;;;6164261;28;20022;-89
2022/08/22 11:40:45;;;;;;;29.70;22.30;;;;;;;;;;6145061;28;20457;-88
2022/08/22 11:43:48;;;;;;;31.75;23.30;;;;;;;;;;6148035;28;20536;-89
2022/08/22 11:46:49;;;;;;;32.92;25.90;;;;;;;;;;6147661;28;20153;-89
2022/08/22 11:49:49;;;;;;;;;;;;;;;;;;6147129;28;20038;-89
2022/08/22 11:53:09;;;;;;;36.22;26.13;;;;;;;;;;6151739;28;19953;-88
2022/08/22 11:56:12;;;;;;;39.00;28.60;;;;;;;;;;6168412;28;20030;-87
2022/08/22 11:59:29;;;;;;;35.55;27.35;;;;;;;;;;6164123;28;20378;-87
2022/08/22 12:02:49;;;;;;;36.83;27.98;;;;;;;;;;6144306;28;20021;-88
2022/08/22 12:05:50;;;;;;;50.85;30.63;;;;;;;;;;6147226;28;20681;-88
2022/08/22 12:09:08;;;;;;;44.72;31.33;;;;;;;;;;6167112;28;20588;-87
2022/08/22 12:12:14;;;;;;;61.13;32.97;;;;;;;;;;6149212;28;20027;-88
2022/08/22 12:15:14;;;;;;;50.50;32.30;;;;;;;;;;6150064;28;20033;-88
2022/08/22 12:18:26;;;;;;;52.87;34.27;;;;;;;;;;6151069;28;20035;-89
2022/08/22 12:21:35;;;;;;;41.00;29.98;;;;;;;;;;6147306;28;20018;-89
2022/08/22 12:24:41;;;;;;;40.60;28.73;;;;;;;;;;6165226;28;20533;-89
2022/08/22 12:27:49;;;;;;;38.20;28.85;;;;;;;;;;6151235;28;20023;-89
2022/08/22 12:30:57;;;;;;;32.38;24.67;;;;;;;;;;6150491;28;20026;-89
2022/08/22 12:34:02;;;;;;;35.28;25.92;;;;;;;;;;6149781;28;20046;-89
2022/08/22 12:37:12;;;;;;;28.55;22.10;;;;;;;;;;6163942;28;20042;-89
2022/08/22 12:40:23;;;;;;;25.95;20.05;;;;;;;;;;6168111;28;20026;-89
2022/08/22 12:43:26;;;;;;;28.70;21.15;;;;;;;;;;6167903;28;20023;-89
2022/08/22 12:46:45;;;;;;;29.77;20.60;;;;;;;;;;6149488;28;20037;-89
2022/08/22 12:50:04;;;;;;;22.45;18.10;;;;;;;;;;6155651;28;20054;-89
2022/08/22 12:53:20;;;;;;;25.80;18.75;;;;;;;;;;6148253;28;20026;-90
2022/08/22 12:56:29;;;;;;;26.77;19.73;;;;;;;;;;6143425;28;20118;-90
2022/08/22 13:03:37;;;;;;;23.42;18.50;;;;;;;;;;6156257;28;20074;-90
2022/08/22 13:07:03;;;;;;;23.83;19.85;;;;;;;;;;6139585;28;20125;-90
2022/08/22 13:10:35;;;;;;;;;;;;;;;;;;;;;
2022/08/22 13:14:17;;;;;;;25.20;18.48;;;;;;;;;;6163179;28;20090;-90
2022/08/22 13:17:26;;;;;;;24.90;19.27;;;;;;;;;;6157919;28;20027;-90
2022/08/22 13:20:49;;;;;;;24.02;18.58;;;;;;;;;;6133550;28;20039;-90
2022/08/22 13:23:54;;;;;;;22.02;18.05;;;;;;;;;;6133349;28;20581;-90
2022/08/22 13:26:58;;;;;;;24.75;17.35;;;;;;;;;;6131003;28;20008;-90
2022/08/22 13:30:12;;;;;;;22.27;17.83;;;;;;;;;;6130294;28;20015;-90
2022/08/22 13:33:24;;;;;;;27.13;17.88;;;;;;;;;;6133524;28;20058;-89
2022/08/22 13:36:25;;;;;;;23.92;18.67;;;;;;;;;;6137822;28;20031;-89
2022/08/22 13:39:31;;;;;;;24.30;17.77;;;;;;;;;;6136938;28;20586;-90
2022/08/22 13:42:32;;;;;;;29.77;18.40;;;;;;;;;;6140966;28;20074;-89
2022/08/22 13:45:34;;;;;;;25.10;18.92;;;;;;;;;;6142076;28;20082;-90
2022/08/22 13:48:45;;;;;;;22.17;16.90;;;;;;;;;;6140235;28;20008;-89
2022/08/22 13:51:51;;;;;;;24.63;17.33;;;;;;;;;;6141324;28;20031;-89
2022/08/22 13:55:00;;;;;;;22.50;18.30;;;;;;;;;;6142675;28;20026;-89
2022/08/22 13:58:03;;;;;;;23.80;16.95;;;;;;;;;;6140643;28;20527;-90
2022/08/22 14:01:26;;;;;;;19.45;16.17;;;;;;;;;;6142070;28;20057;-90
2022/08/22 14:04:28;;;;;;;21.17;16.33;;;;;;;;;;6144266;28;20050;-90
2022/08/22 14:07:32;;;;;;;19.42;15.98;;;;;;;;;;6132944;28;20626;-90
2022/08/22 14:10:35;;;;;;;19.50;14.93;;;;;;;;;;6134761;28;20911;-89
2022/08/22 14:13:35;;;;;;;20.60;16.42;;;;;;;;;;6131280;28;20027;-90
2022/08/22 14:16:46;;;;;;;21.47;16.07;;;;;;;;;;6139211;28;20767;-89
2022/08/22 14:19:50;;;;;;;19.42;14.85;;;;;;;;;;6139243;28;20294;-90
2022/08/22 14:22:58;;;;;;;18.55;14.48;;;;;;;;;;6129530;28;20071;-89
2022/08/22 14:25:59;;;;;;;23.73;14.63;;;;;;;;;;6135404;28;20145;-89
2022/08/22 14:29:01;;;;;;;22.30;15.17;;;;;;;;;;6140786;28;20053;-89
2022/08/22 14:32:10;;;;;;;17.67;14.73;;;;;;;;;;6142843;28;20019;-89
2022/08/22 14:35:22;;;;;;;22.80;15.63;;;;;;;;;;6135789;28;20016;-89
2022/08/22 14:38:33;;;;;;;21.98;14.95;;;;;;;;;;6143903;28;20019;-89
2022/08/22 14:41:42;;;;;;;19.50;13.43;;;;;;;;;;6144188;28;20023;-89
2022/08/22 14:44:54;;;;;;;16.58;14.38;;;;;;;;;;6143135;28;20015;-88
2022/08/22 14:47:56;;;;;;;16.23;13.73;;;;;;;;;;6139392;28;20019;-88
2022/08/22 14:50:58;;;;;;;22.83;13.88;;;;;;;;;;6140074;28;20115;-89
2022/08/22 14:54:16;;;;;;;22.42;15.60;;;;;;;;;;6141207;28;20426;-88
2022/08/22 14:57:16;;;;;;;19.55;13.60;;;;;;;;;;6143362;28;20319;-89
2022/08/22 15:00:28;;;;;;;19.30;14.93;;;;;;;;;;6133306;28;20030;-89
2022/08/22 15:03:31;;;;;;;19.23;15.23;;;;;;;;;;6132976;28;20027;-88
2022/08/22 15:06:37;;;;;;;20.75;16.25;;;;;;;;;;6143467;28;20377;-89
2022/08/22 15:09:38;;;;;;;17.90;15.23;;;;;;;;;;6143538;28;20015;-88
2022/08/22 15:12:52;;;;;;;23.90;15.27;;;;;;;;;;6144084;28;20086;-88
2022/08/22 15:15:55;;;;;;;23.52;14.32;;;;;;;;;;6135736;28;20114;-88
2022/08/22 15:18:56;;;;;;;20.98;15.80;;;;;;;;;;6139251;28;20107;-88
2022/08/22 15:22:24;;;;;;;19.70;16.10;;;;;;;;;;6129629;28;20046;-88
2022/08/22 15:25:36;;;;;;;18.33;13.77;;;;;;;;;;6140591;28;20380;-88
2022/08/22 15:28:36;;;;;;;;;;;;;;;;;;6142520;28;20023;-88
2022/08/22 15:31:38;;;;;;;17.17;13.30;;;;;;;;;;6141322;28;20218;-87
2022/08/22 15:34:45;;;;;;;16.65;13.80;;;;;;;;;;6136368;28;20022;-88
2022/08/22 15:37:57;;;;;;;18.73;14.40;;;;;;;;;;6144333;28;20759;-88
2022/08/22 15:41:19;;;;;;;15.77;12.10;;;;;;;;;;6142671;28;20019;-88
2022/08/22 15:44:23;;;;;;;15.63;12.50;;;;;;;;;;6140771;28;20118;-88
2022/08/22 15:47:33;;;;;;;16.33;12.85;;;;;;;;;;6137986;28;20027;-88
2022/08/22 15:50:33;;;;;;;16.27;12.70;;;;;;;;;;6151508;28;20111;-87
2022/08/22 15:53:43;;;;;;;19.93;13.13;;;;;;;;;;6141771;28;20043;-87
2022/08/22 15:57:02;;;;;;;20.25;13.10;;;;;;;;;;6156437;28;20845;-87
2022/08/22 16:00:06;;;;;;;16.40;10.35;;;;;;;;;;6139753;28;20407;-87
2022/08/22 16:03:09;;;;;;;18.83;11.13;;;;;;;;;;6136001;28;20277;-88
2022/08/22 16:06:10;;;;;;;19.17;11.95;;;;;;;;;;6144177;28;20031;-87
2022/08/22 16:09:31;;;;;;;24.33;12.23;;;;;;;;;;6150329;28;20030;-87
2022/08/22 16:12:39;;;;;;;19.60;11.20;;;;;;;;;;6151989;28;20030;-87
2022/08/22 16:15:45;;;;;;;19.67;11.52;;;;;;;;;;6152232;28;20024;-87
2022/08/22 16:18:45;;;;;;;23.35;11.50;;;;;;;;;;6157124;28;20660;-87
2022/08/22 16:21:46;;;;;;;29.60;13.10;;;;;;;;;;6171713;28;20026;-88
2022/08/22 16:24:57;;;;;;;21.73;10.00;;;;;;;;;;6149429;28;20026;-87
2022/08/22 16:27:58;;;;;;;22.20;12.15;;;;;;;;;;6155289;28;20026;-87
2022/08/22 16:31:13;;;;;;;24.30;10.43;;;;;;;;;;6175408;28;20010;-87
2022/08/22 16:34:19;;;;;;;18.67;10.40;;;;;;;;;;6158715;28;20019;-88
2022/08/22 16:37:33;;;;;;;14.48;9.23;;;;;;;;;;6169319;28;20023;-87
2022/08/22 16:40:44;;;;;;;15.23;9.65;;;;;;;;;;6150077;28;20395;-87
2022/08/22 16:44:04;;;;;;;13.75;9.45;;;;;;;;;;6176045;28;20011;-87
2022/08/22 16:47:09;;;;;;;11.82;7.80;;;;;;;;;;6172533;28;20042;-87
2022/08/22 16:50:22;;;;;;;11.80;8.07;;;;;;;;;;6169007;28;20019;-87
2022/08/22 16:53:25;;;;;;;12.95;8.75;;;;;;;;;;6175406;28;20154;-87
2022/08/22 16:56:29;;;;;;;13.55;8.10;;;;;;;;;;6166858;28;20030;-87
2022/08/22 16:59:33;;;;;;;15.27;9.18;;;;;;;;;;6156738;28;20026;-87
2022/08/22 17:02:45;;;;;;;16.20;9.32;;;;;;;;;;6150285;28;20075;-88
2022/08/22 17:05:45;;;;;;;14.57;9.23;;;;;;;;;;6155029;28;20093;-88
2022/08/22 17:08:56;;;;;;;13.47;10.97;;;;;;;;;;6147579;28;20017;-89
2022/08/22 17:12:18;;;;;;;20.00;11.68;;;;;;;;;;6139970;28;20023;-88
2022/08/22 17:15:33;;;;;;;14.52;11.48;;;;;;;;;;6159736;28;20015;-89
2022/08/22 17:18:43;;;;;;;17.50;12.55;;;;;;;;;;6147577;28;20039;-88
2022/08/22 17:21:49;;;;;;;19.67;13.35;;;;;;;;;;6152056;28;20019;-88
2022/08/22 17:24:53;;;;;;;20.98;15.75;;;;;;;;;;6148580;28;20050;-88
2022/08/22 17:28:09;;;;;;;24.67;16.95;;;;;;;;;;6147552;28;20069;-87
2022/08/22 17:31:28;;;;;;;30.50;19.20;;;;;;;;;;6148192;28;20053;-89
2022/08/22 17:34:28;;;;;;;33.85;19.58;;;;;;;;;;6149245;28;20579;-88
2022/08/22 17:37:43;;;;;;;32.10;19.50;;;;;;;;;;6161864;28;20018;-88
2022/08/22 17:40:53;;;;;;;32.65;18.75;;;;;;;;;;6156508;28;20027;-88
2022/08/22 17:44:12;;;;;;;25.70;17.42;;;;;;;;;;6140284;28;20522;-88
2022/08/22 17:47:18;;;;;;;25.10;17.52;;;;;;;;;;6158111;28;20502;-87
2022/08/22 17:50:28;;;;;;;23.85;16.83;;;;;;;;;;6137564;28;21599;-87
2022/08/22 17:53:36;;;;;;;26.27;17.02;;;;;;;;;;6144903;28;20054;-87
2022/08/22 17:56:42;;;;;;;27.70;15.85;;;;;;;;;;6162233;28;20019;-86
2022/08/22 17:59:50;;;;;;;23.10;14.23;;;;;;;;;;6159527;28;20016;-87
2022/08/22 18:02:57;;;;;;;32.30;12.70;;;;;;;;;;6150085;28;20027;-86
2022/08/22 18:05:57;;;;;;;20.38;14.15;;;;;;;;;;6147502;28;20590;-86
2022/08/22 18:09:00;;;;;;;27.70;14.27;;;;;;;;;;6148554;28;20054;-86
2022/08/22 18:12:06;;;;;;;30.08;15.70;;;;;;;;;;6162544;28;20022;-86
2022/08/22 18:15:17;;;;;;;36.88;17.70;;;;;;;;;;6162237;28;20031;-86
2022/08/22 18:18:17;;;;;;;33.58;17.17;;;;;;;;;;6144345;28;20049;-86
2022/08/22 18:21:24;;;;;;;35.40;19.63;;;;;;;;;;6165657;28;20011;-86
2022/08/22 18:24:32;;;;;;;36.55;17.13;;;;;;;;;;6145843;28;20538;-87
2022/08/22 18:27:36;;;;;;;36.53;18.58;;;;;;;;;;6160427;28;20019;-88
2022/08/22 18:30:47;;;;;;;35.38;16.92;;;;;;;;;;6148490;28;20078;-88
2022/08/22 18:33:51;;;;;;;29.00;16.20;;;;;;;;;;6140765;28;20030;-88
2022/08/22 18:36:54;;;;;;;36.08;17.70;;;;;;;;;;6141893;28;20392;-88